createdAt,value
2023-05-19T00:00:37.449Z,98941.81
2023-05-19T00:01:39.257Z,98939.72
2023-05-19T00:02:41.574Z,98927.19
2023-05-19T00:03:53.711Z,98939.72
2023-05-19T00:04:55.541Z,98934.13
2023-05-19T00:05:57.578Z,98939.25
2023-05-19T00:06:59.287Z,98931.56
2023-05-19T00:08:01.318Z,98935.81
2023-05-19T00:09:09.952Z,98933.56
2023-05-19T00:10:12.016Z,98925.19
2023-05-19T00:11:13.929Z,98932.63
2023-05-19T00:12:16.163Z,98920.72
2023-05-19T00:13:17.945Z,98929.78
2023-05-19T00:14:20.033Z,98923.75
2023-05-19T00:15:22.237Z,98919.88
2023-05-19T00:16:24.598Z,98930.38
2023-05-19T00:17:26.983Z,98926.25
2023-05-19T00:18:29.860Z,98926.00
2023-05-19T00:19:32.444Z,98925.41
2023-05-19T00:20:34.539Z,98935.44
2023-05-19T00:21:38.148Z,98933.56
2023-05-19T00:22:40.347Z,98937.09
2023-05-19T00:23:42.218Z,98935.72
2023-05-19T00:24:43.769Z,98927.91
2023-05-19T00:25:45.671Z,98926.00
2023-05-19T00:26:47.495Z,98923.28
2023-05-19T00:27:49.086Z,98933.34
2023-05-19T00:28:50.678Z,98915.06
2023-05-19T00:29:52.602Z,98934.63
2023-05-19T00:30:54.202Z,98927.81
2023-05-19T00:31:56.658Z,98926.97
2023-05-19T00:32:58.712Z,98928.63
2023-05-19T00:34:00.356Z,98932.16
2023-05-19T00:35:02.999Z,98925.31
2023-05-19T00:36:04.763Z,98903.09
2023-05-19T00:37:06.325Z,98910.47
2023-05-19T00:38:07.917Z,98916.00
2023-05-19T00:39:09.508Z,98919.53
2023-05-19T00:40:11.508Z,98901.50
2023-05-19T00:41:13.069Z,98916.44
2023-05-19T00:42:14.629Z,98916.81
2023-05-19T00:43:16.214Z,98913.03
2023-05-19T00:44:17.825Z,98916.81
2023-05-19T00:45:19.776Z,98923.66
2023-05-19T00:46:23.038Z,98916.94
2023-05-19T00:47:24.762Z,98910.44
2023-05-19T00:48:26.378Z,98904.19
2023-05-19T00:49:27.923Z,98906.31
2023-05-19T00:50:30.243Z,98903.00
2023-05-19T00:51:32.109Z,98906.31
2023-05-19T00:52:33.751Z,98904.31
2023-05-19T00:53:35.457Z,98907.75
2023-05-19T00:54:37.107Z,98909.63
2023-05-19T00:55:40.533Z,98905.25
2023-05-19T00:56:42.069Z,98903.09
2023-05-19T00:57:43.646Z,98894.03
2023-05-19T00:58:45.400Z,98900.75
2023-05-19T00:59:49.801Z,98891.31
2023-05-19T01:00:51.398Z,98899.34
2023-05-19T01:01:53.151Z,98899.94
2023-05-19T01:02:56.140Z,98898.88
2023-05-19T01:03:59.097Z,98900.53
2023-05-19T01:05:01.202Z,98890.72
2023-05-19T01:06:07.184Z,98898.03
2023-05-19T01:07:08.778Z,98898.63
2023-05-19T01:08:10.315Z,98895.09
2023-05-19T01:09:12.041Z,98895.91
2023-05-19T01:10:13.637Z,98895.69
2023-05-19T01:11:15.268Z,98886.72
2023-05-19T01:12:16.810Z,98885.28
2023-05-19T01:13:18.378Z,98895.22
2023-05-19T01:14:20.004Z,98890.84
2023-05-19T01:15:21.644Z,98884.22
2023-05-19T01:16:34.916Z,98892.97
2023-05-19T01:17:49.629Z,98889.06
2023-05-19T01:19:01.535Z,98885.63
2023-05-19T01:20:19.998Z,98885.28
2023-05-19T01:21:58.884Z,98889.78
2023-05-19T01:23:15.155Z,98889.03
2023-05-19T01:25:01.731Z,98891.28
2023-05-19T01:26:12.759Z,98887.16
2023-05-19T01:27:29.368Z,98886.22
2023-05-19T01:28:55.694Z,98880.81
2023-05-19T01:30:19.253Z,98888.81
2023-05-19T01:31:23.830Z,98873.34
2023-05-19T01:32:25.482Z,98885.63
2023-05-19T01:33:27.436Z,98890.47
2023-05-19T01:34:29.014Z,98881.97
2023-05-19T01:35:31.219Z,98883.16
2023-05-19T01:36:32.832Z,98873.59
2023-05-19T01:37:34.423Z,98875.00
2023-05-19T01:38:35.985Z,98880.22
2023-05-19T01:39:37.533Z,98878.91
2023-05-19T01:40:39.517Z,98874.31
2023-05-19T01:41:41.664Z,98863.09
2023-05-19T01:42:45.093Z,98874.63
2023-05-19T01:43:46.663Z,98873.47
2023-05-19T01:44:48.255Z,98879.25
2023-05-19T01:45:49.936Z,98871.34
2023-05-19T01:46:51.523Z,98879.84
2023-05-19T01:47:58.507Z,98872.66
2023-05-19T01:49:00.154Z,98879.38
2023-05-19T01:50:01.692Z,98861.44
2023-05-19T01:51:03.385Z,98880.66
2023-05-19T01:52:05.195Z,98885.50
2023-05-19T01:53:06.738Z,98860.75
2023-05-19T01:54:08.315Z,98879.75
2023-05-19T01:55:10.092Z,98879.75
2023-05-19T01:56:11.661Z,98868.53
2023-05-19T01:57:19.335Z,98879.00
2023-05-19T01:58:38.215Z,98871.00
2023-05-19T01:59:47.574Z,98871.34
2023-05-19T02:01:11.199Z,98875.78
2023-05-19T02:02:23.702Z,98875.44
2023-05-19T02:03:59.114Z,98877.22
2023-05-19T02:05:06.894Z,98876.38
2023-05-19T02:06:32.771Z,98873.53
2023-05-19T02:07:52.428Z,98875.91
2023-05-19T02:09:03.778Z,98875.56
2023-05-19T02:10:06.636Z,98871.22
2023-05-19T02:11:32.969Z,98875.81
2023-05-19T02:12:35.719Z,98873.06
2023-05-19T02:13:37.947Z,98878.66
2023-05-19T02:14:42.100Z,98876.19
2023-05-19T02:15:43.810Z,98877.59
2023-05-19T02:16:46.616Z,98870.50
2023-05-19T02:17:50.574Z,98873.47
2023-05-19T02:18:53.990Z,98870.81
2023-05-19T02:19:55.933Z,98878.66
2023-05-19T02:20:57.480Z,98880.44
2023-05-19T02:21:59.417Z,98872.41
2023-05-19T02:23:00.929Z,98874.88
2023-05-19T02:24:02.542Z,98874.41
2023-05-19T02:25:04.260Z,98869.78
2023-05-19T02:26:05.960Z,98878.19
2023-05-19T02:27:07.870Z,98873.28
2023-05-19T02:28:09.416Z,98876.31
2023-05-19T02:29:10.980Z,98878.09
2023-05-19T02:30:12.660Z,98881.63
2023-05-19T02:31:14.566Z,98875.84
2023-05-19T02:32:16.182Z,98868.53
2023-05-19T02:33:19.353Z,98880.06
2023-05-19T02:34:21.125Z,98874.75
2023-05-19T02:35:22.729Z,98869.69
2023-05-19T02:36:26.850Z,98871.22
2023-05-19T02:37:29.225Z,98872.03
2023-05-19T02:38:30.973Z,98864.25
2023-05-19T02:39:35.272Z,98862.09
2023-05-19T02:40:36.877Z,98861.84
2023-05-19T02:41:39.153Z,98860.56
2023-05-19T02:42:40.701Z,98863.03
2023-05-19T02:43:42.296Z,98867.41
2023-05-19T02:44:43.974Z,98867.16
2023-05-19T02:45:45.707Z,98862.56
2023-05-19T02:46:47.618Z,98861.50
2023-05-19T02:47:49.283Z,98858.28
2023-05-19T02:48:51.181Z,98854.50
2023-05-19T02:49:52.733Z,98852.59
2023-05-19T02:50:54.326Z,98847.75
2023-05-19T02:51:56.212Z,98854.84
2023-05-19T02:52:57.824Z,98843.50
2023-05-19T02:53:59.422Z,98850.59
2023-05-19T02:55:01.024Z,98852.25
2023-05-19T02:56:02.573Z,98843.97
2023-05-19T02:57:04.629Z,98849.03
2023-05-19T02:58:06.640Z,98844.66
2023-05-19T02:59:08.165Z,98847.13
2023-05-19T03:00:09.999Z,98850.47
2023-05-19T03:01:12.118Z,98846.44
2023-05-19T03:02:14.121Z,98847.84
2023-05-19T03:03:15.969Z,98844.56
2023-05-19T03:04:20.107Z,98836.63
2023-05-19T03:05:21.704Z,98846.56
2023-05-19T03:06:23.589Z,98850.06
2023-05-19T03:07:25.351Z,98843.25
2023-05-19T03:08:27.090Z,98858.72
2023-05-19T03:09:28.676Z,98843.38
2023-05-19T03:10:30.669Z,98848.94
2023-05-19T03:11:32.653Z,98848.81
2023-05-19T03:12:34.273Z,98845.03
2023-05-19T03:13:35.856Z,98853.34
2023-05-19T03:14:38.563Z,98850.03
2023-05-19T03:15:40.112Z,98848.50
2023-05-19T03:16:42.698Z,98846.53
2023-05-19T03:17:44.437Z,98841.94
2023-05-19T03:18:46.240Z,98851.50
2023-05-19T03:19:47.843Z,98850.16
2023-05-19T03:20:49.422Z,98850.28
2023-05-19T03:21:51.566Z,98851.13
2023-05-19T03:22:53.137Z,98852.78
2023-05-19T03:23:54.822Z,98855.59
2023-05-19T03:24:58.506Z,98848.50
2023-05-19T03:26:00.152Z,98853.00
2023-05-19T03:27:02.811Z,98857.97
2023-05-19T03:28:04.475Z,98851.09
2023-05-19T03:29:06.092Z,98859.72
2023-05-19T03:30:08.183Z,98852.41
2023-05-19T03:31:09.748Z,98848.88
2023-05-19T03:32:11.290Z,98856.66
2023-05-19T03:33:13.113Z,98853.84
2023-05-19T03:34:14.831Z,98856.56
2023-05-19T03:35:16.446Z,98846.66
2023-05-19T03:36:18.475Z,98850.19
2023-05-19T03:37:20.040Z,98851.41
2023-05-19T03:38:21.581Z,98851.78
2023-05-19T03:39:23.124Z,98847.66
2023-05-19T03:40:24.763Z,98846.47
2023-05-19T03:41:26.681Z,98850.00
2023-05-19T03:42:28.254Z,98853.44
2023-05-19T03:43:29.855Z,98850.72
2023-05-19T03:44:31.417Z,98851.88
2023-05-19T03:45:33.025Z,98853.06
2023-05-19T03:46:34.916Z,98853.72
2023-05-19T03:47:36.467Z,98857.88
2023-05-19T03:48:38.061Z,98859.88
2023-05-19T03:49:39.620Z,98853.38
2023-05-19T03:50:41.207Z,98865.16
2023-05-19T03:51:43.468Z,98855.47
2023-05-19T03:52:46.490Z,98865.31
2023-05-19T03:53:48.802Z,98859.97
2023-05-19T03:54:51.278Z,98867.16
2023-05-19T03:55:53.220Z,98863.63
2023-05-19T03:56:54.926Z,98855.03
2023-05-19T03:57:57.035Z,98861.50
2023-05-19T03:58:59.423Z,98841.31
2023-05-19T04:00:00.976Z,98858.03
2023-05-19T04:01:02.822Z,98860.28
2023-05-19T04:02:04.524Z,98860.63
2023-05-19T04:03:06.256Z,98854.84
2023-05-19T04:04:07.963Z,98851.66
2023-05-19T04:05:10.312Z,98864.28
2023-05-19T04:06:13.293Z,98865.47
2023-05-19T04:07:14.844Z,98872.91
2023-05-19T04:08:16.379Z,98871.56
2023-05-19T04:09:19.414Z,98876.28
2023-05-19T04:10:21.004Z,98857.91
2023-05-19T04:11:22.872Z,98872.75
2023-05-19T04:12:24.392Z,98862.72
2023-05-19T04:13:26.072Z,98870.69
2023-05-19T04:14:27.726Z,98871.28
2023-05-19T04:15:29.310Z,98873.69
2023-05-19T04:16:31.289Z,98873.94
2023-05-19T04:17:33.015Z,98878.03
2023-05-19T04:18:34.630Z,98879.44
2023-05-19T04:19:36.179Z,98870.22
2023-05-19T04:20:37.955Z,98873.28
2023-05-19T04:21:39.484Z,98869.25
2023-05-19T04:22:41.442Z,98875.03
2023-05-19T04:23:43.412Z,98871.81
2023-05-19T04:24:46.049Z,98863.91
2023-05-19T04:25:48.794Z,98869.69
2023-05-19T04:26:50.825Z,98868.84
2023-05-19T04:27:52.981Z,98876.06
2023-05-19T04:28:56.624Z,98880.41
2023-05-19T04:29:58.454Z,98879.09
2023-05-19T04:31:00.297Z,98873.88
2023-05-19T04:32:01.961Z,98879.31
2023-05-19T04:33:04.873Z,98887.25
2023-05-19T04:34:08.045Z,98880.50
2023-05-19T04:35:09.577Z,98883.59
2023-05-19T04:36:11.787Z,98882.59
2023-05-19T04:37:14.160Z,98887.88
2023-05-19T04:38:18.927Z,98889.91
2023-05-19T04:39:21.555Z,98883.81
2023-05-19T04:40:24.174Z,98882.97
2023-05-19T04:41:25.756Z,98883.56
2023-05-19T04:42:33.075Z,98884.38
2023-05-19T04:43:34.661Z,98884.47
2023-05-19T04:44:38.066Z,98883.63
2023-05-19T04:45:42.861Z,98870.63
2023-05-19T04:46:45.273Z,98873.09
2023-05-19T04:47:49.697Z,98881.25
2023-05-19T04:48:51.586Z,98872.38
2023-05-19T04:49:55.778Z,98876.75
2023-05-19T04:50:58.152Z,98876.47
2023-05-19T04:51:59.751Z,98872.09
2023-05-19T04:53:01.324Z,98878.63
2023-05-19T04:54:04.001Z,98880.53
2023-05-19T04:55:06.037Z,98873.50
2023-05-19T04:56:08.103Z,98872.69
2023-05-19T04:57:13.085Z,98877.00
2023-05-19T04:58:14.663Z,98875.56
2023-05-19T04:59:16.523Z,98880.78
2023-05-19T05:00:19.207Z,98873.19
2023-05-19T05:01:25.932Z,98866.94
2023-05-19T05:02:28.174Z,98877.81
2023-05-19T05:03:31.037Z,98871.53
2023-05-19T05:04:32.743Z,98870.47
2023-05-19T05:05:35.073Z,98876.00
2023-05-19T05:06:38.441Z,98861.31
2023-05-19T05:07:40.032Z,98865.09
2023-05-19T05:08:42.727Z,98873.13
2023-05-19T05:09:44.317Z,98875.56
2023-05-19T05:10:45.962Z,98874.50
2023-05-19T05:11:47.654Z,98876.16
2023-05-19T05:12:49.633Z,98879.22
2023-05-19T05:13:51.483Z,98880.03
2023-05-19T05:14:53.533Z,98872.84
2023-05-19T05:15:56.099Z,98877.91
2023-05-19T05:16:57.886Z,98876.84
2023-05-19T05:18:00.376Z,98872.81
2023-05-19T05:19:02.411Z,98883.41
2023-05-19T05:20:06.601Z,98874.94
2023-05-19T05:21:08.737Z,98869.41
2023-05-19T05:22:10.508Z,98875.19
2023-05-19T05:23:14.614Z,98875.19
2023-05-19T05:24:16.656Z,98873.03
2023-05-19T05:25:18.741Z,98864.78
2023-05-19T05:26:21.432Z,98874.03
2023-05-19T05:27:22.978Z,98865.13
2023-05-19T05:28:24.541Z,98859.19
2023-05-19T05:29:26.263Z,98866.84
2023-05-19T05:30:27.819Z,98859.00
2023-05-19T05:31:29.409Z,98860.09
2023-05-19T05:32:31.012Z,98865.88
2023-05-19T05:33:32.660Z,98859.94
2023-05-19T05:34:34.548Z,98858.09
2023-05-19T05:35:36.134Z,98863.66
2023-05-19T05:36:37.673Z,98856.03
2023-05-19T05:37:39.276Z,98859.59
2023-05-19T05:38:40.841Z,98858.75
2023-05-19T05:39:42.389Z,98831.78
2023-05-19T05:40:44.274Z,98854.06
2023-05-19T05:41:45.849Z,98851.81
2023-05-19T05:42:47.402Z,98856.69
2023-05-19T05:43:48.981Z,98854.31
2023-05-19T05:44:50.573Z,98852.16
2023-05-19T05:45:52.176Z,98860.47
2023-05-19T05:46:53.978Z,98855.94
2023-05-19T05:47:55.983Z,98859.28
2023-05-19T05:48:57.862Z,98863.97
2023-05-19T05:50:00.021Z,98850.19
2023-05-19T05:51:01.735Z,98859.00
2023-05-19T05:52:06.089Z,98863.38
2023-05-19T05:53:08.187Z,98857.94
2023-05-19T05:54:09.719Z,98857.22
2023-05-19T05:55:12.300Z,98868.97
2023-05-19T05:56:14.343Z,98870.22
2023-05-19T05:57:16.108Z,98862.16
2023-05-19T05:58:17.671Z,98850.94
2023-05-19T05:59:20.301Z,98873.63
2023-05-19T06:00:22.768Z,98864.94
2023-05-19T06:01:24.344Z,98865.84
2023-05-19T06:02:26.228Z,98867.59
2023-05-19T06:03:28.006Z,98864.59
2023-05-19T06:04:29.581Z,98863.44
2023-05-19T06:05:31.171Z,98865.84
2023-05-19T06:06:32.910Z,98869.50
2023-05-19T06:07:34.460Z,98869.81
2023-05-19T06:08:36.383Z,98857.03
2023-05-19T06:09:37.939Z,98869.41
2023-05-19T06:10:41.708Z,98868.72
2023-05-19T06:11:43.343Z,98837.81
2023-05-19T06:12:44.968Z,98839.22
2023-05-19T06:13:46.529Z,98864.59
2023-05-19T06:14:48.411Z,98866.38
2023-05-19T06:15:51.054Z,98854.31
2023-05-19T06:16:52.991Z,98860.50
2023-05-19T06:17:54.831Z,98863.84
2023-05-19T06:18:56.535Z,98863.84
2023-05-19T06:19:58.445Z,98873.09
2023-05-19T06:21:00.057Z,98866.28
2023-05-19T06:22:01.627Z,98853.91
2023-05-19T06:23:03.184Z,98860.00
2023-05-19T06:24:04.879Z,98854.81
2023-05-19T06:25:07.417Z,98858.16
2023-05-19T06:26:08.992Z,98866.91
2023-05-19T06:27:10.698Z,98868.75
2023-05-19T06:28:12.302Z,98863.47
2023-05-19T06:29:14.021Z,98862.66
2023-05-19T06:30:15.891Z,98870.91
2023-05-19T06:31:17.527Z,98864.78
2023-05-19T06:32:19.114Z,98854.22
2023-05-19T06:33:20.761Z,98858.63
2023-05-19T06:34:22.347Z,98864.75
2023-05-19T06:35:23.911Z,98866.94
2023-05-19T06:36:25.535Z,98861.69
2023-05-19T06:37:27.078Z,98857.19
2023-05-19T06:38:28.647Z,98849.25
2023-05-19T06:39:30.553Z,98863.34
2023-05-19T06:40:32.336Z,98868.84
2023-05-19T06:41:34.613Z,98858.47
2023-05-19T06:42:36.172Z,98853.31
2023-05-19T06:43:37.784Z,98867.03
2023-05-19T06:44:39.320Z,98864.66
2023-05-19T06:45:41.108Z,98863.34
2023-05-19T06:46:44.250Z,98868.94
2023-05-19T06:47:45.967Z,98870.00
2023-05-19T06:48:47.519Z,98865.13
2023-05-19T06:49:55.366Z,98862.16
2023-05-19T06:50:57.230Z,98851.81
2023-05-19T06:51:58.766Z,98859.59
2023-05-19T06:53:00.504Z,98857.06
2023-05-19T06:54:02.460Z,98856.88
2023-05-19T06:55:04.313Z,98860.72
2023-05-19T06:56:06.365Z,98865.13
2023-05-19T06:57:07.966Z,98855.50
2023-05-19T06:58:09.584Z,98850.59
2023-05-19T06:59:11.295Z,98855.50
2023-05-19T07:00:15.280Z,98853.75
2023-05-19T07:01:19.472Z,98848.19
2023-05-19T07:02:21.090Z,98852.31
2023-05-19T07:03:22.778Z,98859.50
2023-05-19T07:04:24.493Z,98847.66
2023-05-19T07:05:26.073Z,98861.91
2023-05-19T07:06:27.684Z,98854.91
2023-05-19T07:07:29.245Z,98862.47
2023-05-19T07:08:30.953Z,98849.53
2023-05-19T07:09:32.543Z,98856.53
2023-05-19T07:10:34.370Z,98851.44
2023-05-19T07:11:36.233Z,98849.81
2023-05-19T07:12:37.757Z,98846.91
2023-05-19T07:13:39.302Z,98856.44
2023-05-19T07:14:41.588Z,98847.06
2023-05-19T07:15:43.331Z,98841.50
2023-05-19T07:16:45.080Z,98842.19
2023-05-19T07:17:46.759Z,98821.94
2023-05-19T07:18:48.355Z,98839.47
2023-05-19T07:19:50.199Z,98837.28
2023-05-19T07:20:53.175Z,98840.25
2023-05-19T07:21:55.490Z,98844.38
2023-05-19T07:22:57.086Z,98850.59
2023-05-19T07:23:58.622Z,98839.84
2023-05-19T07:25:00.471Z,98833.47
2023-05-19T07:26:02.001Z,98841.22
2023-05-19T07:27:03.652Z,98844.34
2023-05-19T07:28:05.433Z,98835.94
2023-05-19T07:29:06.973Z,98835.53
2023-05-19T07:30:09.177Z,98829.47
2023-05-19T07:31:10.699Z,98839.00
2023-05-19T07:32:12.309Z,98830.09
2023-05-19T07:33:13.946Z,98829.25
2023-05-19T07:34:15.561Z,98833.19
2023-05-19T07:35:17.167Z,98835.47
2023-05-19T07:36:18.733Z,98829.88
2023-05-19T07:37:20.324Z,98831.13
2023-05-19T07:38:21.874Z,98827.16
2023-05-19T07:39:26.331Z,98805.47
2023-05-19T07:40:27.911Z,98825.78
2023-05-19T07:41:29.592Z,98826.66
2023-05-19T07:42:31.166Z,98821.25
2023-05-19T07:43:32.761Z,98832.84
2023-05-19T07:44:34.772Z,98822.44
2023-05-19T07:45:36.412Z,98822.78
2023-05-19T07:46:38.262Z,98821.47
2023-05-19T07:47:39.911Z,98821.69
2023-05-19T07:48:41.496Z,98822.88
2023-05-19T07:49:43.035Z,98815.00
2023-05-19T07:50:44.705Z,98811.69
2023-05-19T07:51:46.367Z,98814.28
2023-05-19T07:52:47.943Z,98809.22
2023-05-19T07:53:49.498Z,98806.28
2023-05-19T07:54:51.284Z,98806.50
2023-05-19T07:55:52.882Z,98802.19
2023-05-19T07:56:54.461Z,98796.47
2023-05-19T07:57:56.283Z,98798.88
2023-05-19T07:58:57.837Z,98802.50
2023-05-19T07:59:59.467Z,98807.44
2023-05-19T08:01:01.158Z,98806.06
2023-05-19T08:02:02.750Z,98810.16
2023-05-19T08:03:04.523Z,98803.03
2023-05-19T08:04:06.324Z,98812.88
2023-05-19T08:05:09.597Z,98810.16
2023-05-19T08:06:11.268Z,98808.50
2023-05-19T08:07:12.817Z,98800.28
2023-05-19T08:08:16.927Z,98805.50
2023-05-19T08:09:18.873Z,98811.38
2023-05-19T08:10:20.832Z,98800.75
2023-05-19T08:11:22.495Z,98803.34
2023-05-19T08:12:24.067Z,98800.06
2023-05-19T08:13:25.662Z,98795.00
2023-05-19T08:14:27.471Z,98800.78
2023-05-19T08:15:29.146Z,98787.88
2023-05-19T08:16:30.841Z,98794.13
2023-05-19T08:17:32.580Z,98795.41
2023-05-19T08:18:34.242Z,98800.97
2023-05-19T08:19:35.790Z,98806.19
2023-05-19T08:20:37.607Z,98799.09
2023-05-19T08:21:39.155Z,98802.59
2023-05-19T08:22:40.905Z,98799.06
2023-05-19T08:23:42.459Z,98806.97
2023-05-19T08:24:44.784Z,98809.72
2023-05-19T08:25:46.400Z,98800.66
2023-05-19T08:26:47.951Z,98799.81
2023-05-19T08:27:49.500Z,98804.13
2023-05-19T08:28:51.138Z,98806.66
2023-05-19T08:29:52.706Z,98808.34
2023-05-19T08:30:54.420Z,98802.72
2023-05-19T08:31:56.232Z,98790.72
2023-05-19T08:32:58.141Z,98802.53
2023-05-19T08:33:59.856Z,98802.09
2023-05-19T08:35:01.513Z,98797.78
2023-05-19T08:36:03.174Z,98783.06
2023-05-19T08:37:04.967Z,98794.88
2023-05-19T08:38:06.818Z,98784.06
2023-05-19T08:39:08.564Z,98794.00
2023-05-19T08:40:12.169Z,98786.97
2023-05-19T08:41:13.699Z,98790.00
2023-05-19T08:42:15.425Z,98782.31
2023-05-19T08:43:17.000Z,98785.84
2023-05-19T08:44:19.149Z,98791.34
2023-05-19T08:45:20.929Z,98781.47
2023-05-19T08:46:22.894Z,98783.94
2023-05-19T08:47:24.450Z,98786.41
2023-05-19T08:48:26.029Z,98780.38
2023-05-19T08:49:28.459Z,98787.88
2023-05-19T08:50:31.157Z,98782.13
2023-05-19T08:51:48.494Z,98782.47
2023-05-19T08:53:01.696Z,98786.84
2023-05-19T08:54:09.394Z,98780.56
2023-05-19T08:55:21.767Z,98773.28
2023-05-19T08:56:24.246Z,98779.38
2023-05-19T08:57:25.841Z,98779.13
2023-05-19T08:58:28.797Z,98778.44
2023-05-19T08:59:30.773Z,98772.69
2023-05-19T09:00:33.022Z,98771.50
2023-05-19T09:02:36.969Z,98780.63
2023-05-19T09:03:39.311Z,98768.03
2023-05-19T09:04:41.025Z,98776.47
2023-05-19T09:05:42.995Z,98772.13
2023-05-19T09:06:45.320Z,98770.81
2023-05-19T09:07:48.264Z,98772.75
2023-05-19T09:08:49.679Z,98764.66
2023-05-19T09:09:51.273Z,98769.84
2023-05-19T09:10:52.919Z,98768.97
2023-05-19T09:11:54.542Z,98770.63
2023-05-19T09:12:56.163Z,98765.13
2023-05-19T09:13:57.715Z,98770.63
2023-05-19T09:14:59.370Z,98765.69
2023-05-19T09:16:02.050Z,98771.44
2023-05-19T09:17:04.199Z,98776.66
2023-05-19T09:18:12.749Z,98773.09
2023-05-19T09:19:17.252Z,98770.34
2023-05-19T09:20:18.925Z,98770.63
2023-05-19T09:21:20.486Z,98769.75
2023-05-19T09:22:22.293Z,98771.00
2023-05-19T09:23:24.996Z,98767.53
2023-05-19T09:24:26.936Z,98761.91
2023-05-19T09:25:28.841Z,98763.72
2023-05-19T09:26:40.467Z,98776.31
2023-05-19T09:27:42.089Z,98770.25
2023-05-19T09:28:44.343Z,98769.53
2023-05-19T09:29:45.915Z,98764.78
2023-05-19T09:30:47.832Z,98768.78
2023-05-19T09:31:50.802Z,98760.47
2023-05-19T09:32:52.465Z,98768.41
2023-05-19T09:33:54.030Z,98762.81
2023-05-19T09:34:55.863Z,98761.91
2023-05-19T09:35:57.856Z,98762.59
2023-05-19T09:36:59.955Z,98762.69
2023-05-19T09:38:01.555Z,98750.38
2023-05-19T09:39:03.122Z,98763.19
2023-05-19T09:40:05.570Z,98754.53
2023-05-19T09:41:07.946Z,98761.72
2023-05-19T09:42:09.501Z,98764.78
2023-05-19T09:43:11.105Z,98758.25
2023-05-19T09:44:21.362Z,98763.41
2023-05-19T09:45:23.074Z,98758.59
2023-05-19T09:46:28.368Z,98747.41
2023-05-19T09:47:40.337Z,98752.25
2023-05-19T09:48:42.500Z,98747.97
2023-05-19T09:49:47.684Z,98754.56
2023-05-19T09:50:51.624Z,98757.00
2023-05-19T09:51:56.812Z,98766.00
2023-05-19T09:52:58.569Z,98761.91
2023-05-19T09:54:00.182Z,98756.97
2023-05-19T09:55:04.183Z,98759.72
2023-05-19T09:56:06.455Z,98751.78
2023-05-19T09:57:08.990Z,98759.72
2023-05-19T09:58:12.624Z,98752.31
2023-05-19T09:59:15.411Z,98763.59
2023-05-19T10:00:17.892Z,98754.59
2023-05-19T10:01:19.952Z,98752.44
2023-05-19T10:02:22.069Z,98748.59
2023-05-19T10:03:24.104Z,98748.25
2023-05-19T10:04:27.100Z,98746.59
2023-05-19T10:05:28.859Z,98734.00
2023-05-19T10:06:30.843Z,98738.66
2023-05-19T10:07:32.380Z,98750.44
2023-05-19T10:08:35.885Z,98743.88
2023-05-19T10:09:37.519Z,98727.75
2023-05-19T10:10:39.157Z,98747.44
2023-05-19T10:11:41.323Z,98739.25
2023-05-19T10:12:42.908Z,98745.00
2023-05-19T10:13:45.566Z,98738.97
2023-05-19T10:14:47.141Z,98732.13
2023-05-19T10:15:58.254Z,98734.88
2023-05-19T10:17:02.066Z,98736.00
2023-05-19T10:18:03.748Z,98733.53
2023-05-19T10:19:05.681Z,98729.16
2023-05-19T10:20:17.109Z,98719.81
2023-05-19T10:21:18.777Z,98723.38
2023-05-19T10:22:20.530Z,98720.63
2023-05-19T10:23:22.532Z,98718.97
2023-05-19T10:24:24.383Z,98715.66
2023-05-19T10:25:26.591Z,98718.94
2023-05-19T10:26:28.227Z,98713.16
2023-05-19T10:27:35.679Z,98710.97
2023-05-19T10:28:39.161Z,98717.53
2023-05-19T10:29:43.007Z,98721.44
2023-05-19T10:30:48.965Z,98723.66
2023-05-19T10:31:50.634Z,98717.06
2023-05-19T10:32:52.565Z,98713.22
2023-05-19T10:34:32.563Z,98717.84
2023-05-19T10:35:59.737Z,98713.16
2023-05-19T10:37:16.981Z,98708.47
2023-05-19T10:38:28.375Z,98706.03
2023-05-19T10:39:32.157Z,98702.47
2023-05-19T10:40:35.920Z,98699.78
2023-05-19T10:41:47.091Z,98700.03
2023-05-19T10:43:20.818Z,98707.41
2023-05-19T10:44:40.549Z,98688.81
2023-05-19T10:45:48.003Z,98692.88
2023-05-19T10:46:49.654Z,98691.91
2023-05-19T10:47:51.940Z,98691.88
2023-05-19T10:48:53.581Z,98686.88
2023-05-19T10:49:55.871Z,98675.75
2023-05-19T10:50:57.818Z,98686.75
2023-05-19T10:51:59.337Z,98679.34
2023-05-19T10:53:00.864Z,98679.88
2023-05-19T10:54:03.132Z,98682.41
2023-05-19T10:55:08.635Z,98686.13
2023-05-19T10:56:10.379Z,98692.09
2023-05-19T10:57:16.316Z,98682.19
2023-05-19T10:58:39.693Z,98676.88
2023-05-19T10:59:42.100Z,98679.28
2023-05-19T11:00:43.672Z,98678.22
2023-05-19T11:01:45.396Z,98685.91
2023-05-19T11:02:47.554Z,98691.94
2023-05-19T11:03:53.788Z,98678.28
2023-05-19T11:04:58.450Z,98684.75
2023-05-19T11:06:19.839Z,98684.88
2023-05-19T11:07:22.305Z,98688.16
2023-05-19T11:08:32.407Z,98690.91
2023-05-19T11:09:40.045Z,98681.50
2023-05-19T11:10:44.886Z,98671.31
2023-05-19T11:11:52.856Z,98673.50
2023-05-19T11:12:54.889Z,98681.69
2023-05-19T11:13:56.640Z,98672.28
2023-05-19T11:14:58.381Z,98676.97
2023-05-19T11:16:01.202Z,98678.56
2023-05-19T11:17:02.914Z,98674.66
2023-05-19T11:18:04.804Z,98666.47
2023-05-19T11:19:06.482Z,98682.28
2023-05-19T11:20:11.008Z,98675.41
2023-05-19T11:21:12.580Z,98680.91
2023-05-19T11:22:14.292Z,98682.03
2023-05-19T11:23:19.577Z,98668.84
2023-05-19T11:24:33.913Z,98674.44
2023-05-19T11:25:42.341Z,98677.09
2023-05-19T11:26:44.285Z,98676.50
2023-05-19T11:27:45.977Z,98678.13
2023-05-19T11:28:47.807Z,98674.84
2023-05-19T11:29:49.474Z,98677.47
2023-05-19T11:30:51.862Z,98665.31
2023-05-19T11:31:53.849Z,98663.84
2023-05-19T11:32:55.713Z,98670.09
2023-05-19T11:33:57.309Z,98663.00
2023-05-19T11:34:58.930Z,98671.69
2023-05-19T11:36:00.515Z,98663.13
2023-05-19T11:37:02.127Z,98664.22
2023-05-19T11:38:03.683Z,98674.06
2023-05-19T11:39:06.015Z,98670.94
2023-05-19T11:40:08.086Z,98664.09
2023-05-19T11:41:09.686Z,98657.56
2023-05-19T11:42:11.619Z,98666.53
2023-05-19T11:43:13.404Z,98660.19
2023-05-19T11:44:14.942Z,98655.81
2023-05-19T11:45:16.510Z,98657.38
2023-05-19T11:46:18.152Z,98660.03
2023-05-19T11:47:20.586Z,98655.22
2023-05-19T11:48:22.502Z,98653.44
2023-05-19T11:49:24.352Z,98648.34
2023-05-19T11:50:25.971Z,98651.41
2023-05-19T11:51:27.489Z,98656.22
2023-05-19T11:52:29.119Z,98662.13
2023-05-19T11:53:33.239Z,98648.81
2023-05-19T11:54:37.090Z,98654.88
2023-05-19T11:55:48.400Z,98641.97
2023-05-19T11:56:50.385Z,98637.75
2023-05-19T11:58:05.006Z,98632.19
2023-05-19T11:59:07.013Z,98645.19
2023-05-19T12:00:09.213Z,98641.78
2023-05-19T12:01:11.138Z,98639.91
2023-05-19T12:02:14.075Z,98639.03
2023-05-19T12:03:17.437Z,98629.88
2023-05-19T12:04:19.341Z,98636.31
2023-05-19T12:05:25.308Z,98635.44
2023-05-19T12:06:27.567Z,98626.22
2023-05-19T12:07:29.520Z,98626.41
2023-05-19T12:08:31.109Z,98626.22
2023-05-19T12:09:32.633Z,98618.28
2023-05-19T12:10:34.331Z,98611.81
2023-05-19T12:11:35.903Z,98618.00
2023-05-19T12:12:37.495Z,98615.16
2023-05-19T12:13:39.042Z,98613.38
2023-05-19T12:14:40.623Z,98612.47
2023-05-19T12:15:42.147Z,98607.16
2023-05-19T12:16:46.719Z,98609.72
2023-05-19T12:17:57.523Z,98603.78
2023-05-19T12:20:19.450Z,98601.16
2023-05-19T12:21:21.125Z,98604.91
2023-05-19T12:22:22.716Z,98601.31
2023-05-19T12:23:24.806Z,98608.06
2023-05-19T12:24:26.333Z,98615.38